Observations for MANCHESTER INTL, United Kingdom (EGCC)

EGCC 240920Z VRB02KT 9999 -SHRA FEW015CB FEW037 18/16 Q1016 RESHRA TEMPO SHRA   
EGCC 240850Z AUTO VRB02KT 9999 FEW013 18/15 Q1015 TEMPO SHRA
EGCC 240820Z AUTO VRB02KT 9999 FEW012 18/15 Q1015 TEMPO SHRA
EGCC 240750Z AUTO VRB02KT 9999 NCD 17/15 Q1015 NOSIG
EGCC 240720Z AUTO VRB03KT 9999 NCD 17/15 Q1015 NOSIG
EGCC 240650Z AUTO VRB03KT 9999 NCD 16/14 Q1015 NOSIG
EGCC 240620Z 06002KT 9999 FEW025 16/14 Q1015 NOSIG  
EGCC 240550Z 06003KT 9000 SCT025 16/14 Q1015 NOSIG  
EGCC 240520Z AUTO VRB03KT 9999 FEW027 15/14 Q1015 NOSIG 
EGCC 240450Z AUTO 05003KT 9999 NCD 15/14 Q1015 NOSIG
EGCC 240420Z AUTO 36002KT 9999 NCD 16/14 Q1015 NOSIG
EGCC 240350Z AUTO 05004KT 9999 NCD 14/13 Q1014 NOSIG
EGCC 240320Z AUTO 07005KT 9999 //////CB 15/13 Q1014 NOSIG   
EGCC 240250Z AUTO 04004KT 9999 //////CB 16/13 Q1015 NOSIG   
EGCC 240220Z AUTO 04003KT 9999 SCT047/// //////CB 16/13 Q1015 NOSIG 
EGCC 240150Z AUTO 04005KT 9999 NCD 16/13 Q1015 NOSIG
EGCC 240120Z AUTO 03008KT 9999 NCD 16/13 Q1015 NOSIG
EGCC 240050Z AUTO 03006KT 9999 BKN045 16/13 Q1015 NOSIG 
EGCC 240020Z AUTO 05005KT 9999 BKN045/// //////TCU 15/13 Q1016 NOSIG
EGCC 232350Z AUTO 06006KT 030V100 9999 SCT046/// //////CB 16/13 Q1016 NOSIG 
EGCC 232320Z AUTO 05005KT 010V090 9999 BKN043/// //////CB 16/13 Q1016 TEMPO SHRA
EGCC 232250Z AUTO 06005KT 030V100 9999 -RA BKN043/// //////CB 16/13 Q1016 TEMPO 4000 SHRA   
EGCC 232220Z AUTO 08009KT 040V130 9999 FEW047/// //////CB 16/13 Q1016 NOSIG 
EGCC 232150Z AUTO 08007KT 060V120 9999 -RA BKN042/// //////TCU 16/13 Q1016 NOSIG
EGCC 232120Z AUTO 07009KT 9999 SCT047 16/13 Q1016 NOSIG 
EGCC 232050Z AUTO 06007KT 9999 NCD 16/13 Q1016 NOSIG
EGCC 232020Z AUTO 02011KT 9999 -RA //////TCU 16/14 Q1016 NOSIG  
EGCC 231950Z AUTO 03012KT 9999 -RA //////CB 16/14 Q1017 TEMPO RA
EGCC 231920Z 04012KT 6000 -RA BKN049CB 16/14 Q1017  
EGCC 231850Z 05011KT 9999 6000SW -RA FEW038CB 16/14 Q1017 RESHRA TEMPO RA   
EGCC 231820Z 07008KT 9999 4000SW -SHRA SCT049TCU 17/14 Q1017 TEMPO SHRA 
EGCC 231750Z 06009KT 9999 5000NW -SHRA SCT049TCU 17/14 Q1016 RERA TEMPO SHRA
EGCC 231720Z AUTO 07008KT 9999 -RA NCD 19/14 Q1017 TEMPO SHRA   
EGCC 231650Z AUTO 07010KT 9999 NCD 19/14 Q1017 TEMPO SHRA   
EGCC 231620Z AUTO 07010KT 040V110 9999 NCD 19/13 Q1017 NOSIG
EGCC 231550Z AUTO 08009KT 030V140 9999 NCD 20/13 Q1017 NOSIG
EGCC 231520Z AUTO 08007KT 030V130 9999 NCD 20/13 Q1018 NOSIG
EGCC 231450Z AUTO 08006KT 330V120 9999 NCD 20/13 Q1018 NOSIG
EGCC 231420Z AUTO 08008KT 9999 NCD 20/13 Q1018 NOSIG
EGCC 231350Z AUTO 08008KT 050V120 9999 NCD 19/13 Q1018 NOSIG
EGCC 231320Z AUTO VRB06KT 9999 NCD 20/13 Q1018 NOSIG
EGCC 231250Z AUTO 09011KT 040V200 9999 NCD 21/13 Q1018 NOSIG
EGCC 231220Z AUTO 09008KT 060V140 9999 NCD 20/13 Q1018 NOSIG
EGCC 231150Z AUTO 09008KT 050V150 9999 NCD 19/12 Q1018 NOSIG
EGCC 231120Z AUTO 10006KT 040V190 9999 NCD 19/12 Q1019 NOSIG
EGCC 231050Z AUTO 08008KT 060V120 9999 NCD 18/12 Q1019 NOSIG
EGCC 231020Z AUTO 10007KT 330V150 9999 NCD 18/12 Q1019 NOSIG
EGCC 230950Z AUTO 09008KT 040V130 9999 NCD 17/11 Q1019 NOSIG
EGCC 230920Z AUTO 09005KT 010V160 9999 NCD 17/11 Q1019 NOSIG
EGCC 230850Z AUTO 09006KT 050V140 9999 NCD 16/11 Q1019 NOSIG